Time;durP1;ratioP1;P1;durP2;ratioP2;P2;SDS_P1;SDS_P2;PMS_P1;PMS_P2;Temp;Humidity;BMP_temperature;BMP_pressure;BME280_temperature;BME280_humidity;BME280_pressure;Samples;Min_cycle;Max_cycle;Signal;HPM_P1;HPM_P2
2021/10/04 00:00:07;;;;;;;0.20;0.20;;;;;;;19.34;53.94;100730.06;693403;28;23484;-69
2021/10/04 00:00:32;;;;;;;0.20;0.20;;;;;;;19.33;53.96;100733.88;683708;28;161656;-69
2021/10/04 00:00:54;;;;;;;0.20;0.20;;;;;;;19.33;53.93;100731.13;687623;28;44155;-69
2021/10/04 00:01:15;;;;;;;0.20;0.20;;;;;;;19.31;53.92;100729.69;687843;28;46472;-69
2021/10/04 00:01:38;;;;;;;0.20;0.20;;;;;;;19.31;53.91;100735.16;688961;28;23461;-69
2021/10/04 00:02:02;;;;;;;0.17;0.17;;;;;;;19.32;54.24;100737.66;686483;28;90727;-69
2021/10/04 00:02:23;;;;;;;0.20;0.20;;;;;;;19.27;54.06;100746.59;687103;28;69663;-69
2021/10/04 00:02:44;;;;;;;0.20;0.20;;;;;;;19.30;54.13;100739.81;688781;28;22293;-69
2021/10/04 00:03:06;;;;;;;0.20;0.20;;;;;;;19.30;54.19;100736.25;689397;28;23444;-69
2021/10/04 00:03:27;;;;;;;0.20;0.20;;;;;;;19.29;54.12;100742.78;688555;28;44471;-69
2021/10/04 00:03:49;;;;;;;0.20;0.20;;;;;;;19.25;54.18;100747.91;688702;28;22361;-69
2021/10/04 00:04:11;;;;;;;0.20;0.20;;;;;;;19.26;54.32;100747.69;688251;28;46316;-69
2021/10/04 00:04:32;;;;;;;0.20;0.20;;;;;;;19.24;54.50;100749.78;688421;28;45120;-69
2021/10/04 00:04:53;;;;;;;0.20;0.20;;;;;;;19.26;54.41;100752.31;687462;28;46329;-69
2021/10/04 00:05:14;;;;;;;0.20;0.20;;;;;;;19.24;54.49;100748.97;688111;28;46393;-69
2021/10/04 00:05:36;;;;;;;0.20;0.20;;;;;;;19.20;54.54;100745.88;688433;28;21541;-69
2021/10/04 00:05:57;;;;;;;0.20;0.20;;;;;;;19.20;54.65;100742.28;688463;28;22203;-69
2021/10/04 00:06:18;;;;;;;0.20;0.20;;;;;;;19.22;54.36;100751.13;688107;28;46353;-68
2021/10/04 00:06:39;;;;;;;0.20;0.20;;;;;;;19.22;54.47;100751.13;688763;28;23455;-69
2021/10/04 00:07:00;;;;;;;0.20;0.20;;;;;;;19.22;54.43;100757.41;688746;28;21537;-69
2021/10/04 00:07:22;;;;;;;0.17;0.17;;;;;;;19.22;54.51;100757.41;689084;28;22526;-69
2021/10/04 00:07:43;;;;;;;0.20;0.20;;;;;;;19.19;54.50;100746.94;687706;28;46387;-69
2021/10/04 00:08:05;;;;;;;0.20;0.20;;;;;;;19.23;54.54;100755.50;689051;28;21534;-68
2021/10/04 00:08:26;;;;;;;0.20;0.20;;;;;;;19.23;54.43;100761.84;689107;28;23504;-69
2021/10/04 00:08:48;;;;;;;0.20;0.20;;;;;;;19.22;54.38;100748.38;688905;28;22405;-69
2021/10/04 00:09:09;;;;;;;0.20;0.20;;;;;;;19.24;54.50;100752.53;687761;28;45236;-69
2021/10/04 00:09:30;;;;;;;0.17;0.17;;;;;;;19.24;54.56;100757.19;688840;28;22054;-69
2021/10/04 00:09:52;;;;;;;0.20;0.20;;;;;;;19.23;54.56;100750.03;688283;28;21573;-69
2021/10/04 00:10:16;;;;;;;0.10;0.10;;;;;;;19.23;54.56;100753.63;687016;28;46386;-69
2021/10/04 00:10:38;;;;;;;0.20;0.20;;;;;;;19.22;54.65;100756.59;686044;28;115533;-69
2021/10/04 00:11:02;;;;;;;0.20;0.20;;;;;;;19.23;54.52;100755.50;688200;28;22413;-69
2021/10/04 00:11:27;;;;;;;0.20;0.20;;;;;;;19.21;54.36;100746.69;687673;28;59227;-69
2021/10/04 00:11:48;;;;;;;0.20;0.20;;;;;;;19.23;54.51;100750.88;688222;28;46441;-69
2021/10/04 00:12:09;;;;;;;0.15;0.15;;;;;;;19.23;54.49;100756.34;689623;28;22404;-69
2021/10/04 00:12:31;;;;;;;0.20;0.20;;;;;;;19.24;54.56;100754.44;688983;28;22397;-69
2021/10/04 00:12:53;;;;;;;0.20;0.20;;;;;;;19.25;54.57;100758.88;688627;28;45938;-69
2021/10/04 00:13:14;;;;;;;0.20;0.20;;;;;;;19.25;54.29;100759.69;687768;28;46303;-69
2021/10/04 00:13:35;;;;;;;0.20;0.20;;;;;;;19.25;54.39;100756.94;688811;28;22308;-69
2021/10/04 00:13:56;;;;;;;0.20;0.20;;;;;;;19.27;54.36;100759.47;688881;28;11568;-69
2021/10/04 00:14:20;;;;;;;0.20;0.20;;;;;;;19.29;54.45;100759.22;688815;28;22466;-69
2021/10/04 00:14:41;;;;;;;0.20;0.20;;;;;;;19.27;54.34;100751.25;686785;28;90783;-69
2021/10/04 00:15:06;;;;;;;0.20;0.20;;;;;;;19.29;54.48;100757.31;688596;28;23476;-69
2021/10/04 00:15:30;;;;;;;0.20;0.20;;;;;;;19.30;54.43;100758.16;685463;28;113599;-72
2021/10/04 00:15:51;;;;;;;0.10;0.10;;;;;;;19.30;54.45;100764.47;686162;28;92128;-69
2021/10/04 00:16:12;;;;;;;0.20;0.20;;;;;;;19.27;54.29;100752.06;687716;28;46027;-69
2021/10/04 00:16:34;;;;;;;0.20;0.20;;;;;;;19.32;54.32;100750.53;688836;28;23782;-69
2021/10/04 00:16:56;;;;;;;0.20;0.20;;;;;;;19.32;54.23;100762.31;688982;28;22409;-69
2021/10/04 00:17:19;;;;;;;0.20;0.20;;;;;;;19.31;54.30;100755.19;687175;28;67512;-69
2021/10/04 00:17:40;;;;;;;0.10;0.10;;;;;;;19.34;54.25;100762.09;687560;28;45283;-69
2021/10/04 00:18:02;;;;;;;0.20;0.20;;;;;;;19.31;54.34;100757.94;688631;28;46369;-69
2021/10/04 00:18:23;;;;;;;0.20;0.20;;;;;;;19.33;54.36;100753.03;688829;28;46454;-69
2021/10/04 00:18:45;;;;;;;0.20;0.20;;;;;;;19.32;54.11;100751.38;689577;28;8187;-69
2021/10/04 00:19:07;;;;;;;0.20;0.20;;;;;;;19.31;54.45;100759.81;688956;28;21538;-68
2021/10/04 00:19:28;;;;;;;0.10;0.10;;;;;;;19.33;54.33;100763.16;688163;28;46628;-69
2021/10/04 00:19:49;;;;;;;0.20;0.20;;;;;;;19.33;54.27;100768.66;689555;28;1843;-69
2021/10/04 00:20:13;;;;;;;0.20;0.20;;;;;;;19.30;54.31;100760.91;687809;28;23173;-69
2021/10/04 00:20:34;;;;;;;0.20;0.20;;;;;;;19.29;54.46;100765.53;686414;28;90764;-69
2021/10/04 00:20:56;;;;;;;0.20;0.20;;;;;;;19.30;54.43;100769.13;688724;28;21527;-69
2021/10/04 00:21:17;;;;;;;0.20;0.20;;;;;;;19.28;54.44;100766.63;688605;28;22366;-69
2021/10/04 00:21:39;;;;;;;0.20;0.20;;;;;;;19.27;54.42;100764.94;688400;28;22389;-69
2021/10/04 00:22:00;;;;;;;0.20;0.20;;;;;;;19.25;54.63;100767.91;688012;28;44356;-69
2021/10/04 00:22:21;;;;;;;0.20;0.20;;;;;;;19.26;54.54;100774.19;689201;28;21902;-69
2021/10/04 00:22:43;;;;;;;0.20;0.20;;;;;;;19.25;54.60;100765.16;688966;28;21554;-69
2021/10/04 00:23:06;;;;;;;0.20;0.20;;;;;;;19.26;54.69;100774.19;688085;28;45053;-71
2021/10/04 00:23:27;;;;;;;0.20;0.20;;;;;;;19.25;54.77;100765.16;687700;28;67503;-70
2021/10/04 00:23:48;;;;;;;0.20;0.20;;;;;;;19.23;54.85;100767.31;688786;28;22421;-70
2021/10/04 00:24:09;;;;;;;0.20;0.20;;;;;;;19.24;54.75;100768.97;689182;28;22191;-69
2021/10/04 00:24:32;;;;;;;0.20;0.20;;;;;;;19.23;54.72;100769.19;689002;28;22330;-69
2021/10/04 00:24:53;;;;;;;0.20;0.20;;;;;;;19.25;54.70;100772.56;686518;28;69452;-69
2021/10/04 00:25:14;;;;;;;0.20;0.20;;;;;;;19.23;54.85;100775.53;688596;28;22400;-69
2021/10/04 00:25:36;;;;;;;0.20;0.20;;;;;;;19.26;54.68;100771.47;688171;28;21511;-69
2021/10/04 00:25:58;;;;;;;0.13;0.13;;;;;;;19.25;54.53;100772.56;687186;28;44211;-69
2021/10/04 00:26:19;;;;;;;0.20;0.20;;;;;;;19.26;54.67;100774.19;687930;28;46497;-69
2021/10/04 00:26:40;;;;;;;0.20;0.20;;;;;;;19.25;54.94;100767.09;688407;28;21537;-69
2021/10/04 00:27:01;;;;;;;0.20;0.20;;;;;;;19.25;54.94;100773.38;688598;28;44384;-69
2021/10/04 00:27:23;;;;;;;0.20;0.20;;;;;;;19.25;54.93;100775.28;689126;28;14425;-69
2021/10/04 00:27:44;;;;;;;0.20;0.20;;;;;;;19.25;54.92;100772.56;687229;28;44440;-70
2021/10/04 00:28:06;;;;;;;0.20;0.20;;;;;;;19.26;54.97;100774.19;688513;28;23449;-69
2021/10/04 00:28:27;;;;;;;0.20;0.20;;;;;;;19.25;54.87;100778.03;688387;28;22421;-69
2021/10/04 00:28:49;;;;;;;0.10;0.10;;;;;;;19.27;55.15;100775.88;688655;28;21561;-69
2021/10/04 00:29:10;;;;;;;0.20;0.20;;;;;;;19.27;54.87;100770.41;687692;28;47239;-69
2021/10/04 00:29:31;;;;;;;0.20;0.20;;;;;;;19.28;54.99;100774.81;688050;28;47158;-69
2021/10/04 00:29:52;;;;;;;0.20;0.20;;;;;;;19.29;54.96;100767.44;688384;28;22414;-69
2021/10/04 00:30:16;;;;;;;0.20;0.20;;;;;;;19.29;55.02;100775.66;688538;28;22388;-69
2021/10/04 00:30:37;;;;;;;0.20;0.20;;;;;;;19.27;54.99;100773.16;687060;28;67544;-69
2021/10/04 00:30:58;;;;;;;0.20;0.20;;;;;;;19.26;55.00;100769.59;688545;28;23484;-69
2021/10/04 00:31:19;;;;;;;0.20;0.20;;;;;;;19.28;55.12;100772.09;689065;28;23584;-69
2021/10/04 00:31:41;;;;;;;0.20;0.20;;;;;;;19.27;55.28;100770.41;689566;28;22833;-69
2021/10/04 00:32:04;;;;;;;0.20;0.20;;;;;;;19.28;55.22;100774.81;687768;28;44376;-69
2021/10/04 00:32:25;;;;;;;0.20;0.20;;;;;;;19.28;55.26;100777.56;685897;28;92348;-69
2021/10/04 00:32:48;;;;;;;0.20;0.20;;;;;;;19.27;55.24;100771.22;688880;28;22163;-69
2021/10/04 00:33:10;;;;;;;0.20;0.20;;;;;;;19.26;55.54;100772.31;687806;28;46309;-69
2021/10/04 00:33:31;;;;;;;0.20;0.20;;;;;;;19.29;55.20;100776.47;688131;28;46394;-69
2021/10/04 00:33:52;;;;;;;0.20;0.20;;;;;;;19.28;55.05;100774.81;688779;28;24158;-69
2021/10/04 00:34:13;;;;;;;0.20;0.20;;;;;;;19.26;54.96;100772.31;688923;28;22913;-69
2021/10/04 00:34:35;;;;;;;0.20;0.20;;;;;;;19.24;54.97;100774.44;688669;28;23497;-69
2021/10/04 00:34:56;;;;;;;0.20;0.20;;;;;;;19.26;54.97;100772.31;686796;28;45275;-69
2021/10/04 00:35:19;;;;;;;0.10;0.10;;;;;;;19.26;55.10;100771.47;688931;28;23505;-69
2021/10/04 00:35:40;;;;;;;0.20;0.20;;;;;;;19.25;55.02;100776.13;687624;28;67160;-69
2021/10/04 00:36:02;;;;;;;0.20;0.20;;;;;;;19.25;55.12;100772.56;688465;28;22376;-69
2021/10/04 00:36:24;;;;;;;0.20;0.20;;;;;;;19.25;54.86;100772.56;687213;28;69450;-69
2021/10/04 00:36:45;;;;;;;0.20;0.20;;;;;;;19.23;55.04;100772.78;688245;28;44140;-69
2021/10/04 00:37:09;;;;;;;0.17;0.17;;;;;;;19.22;55.06;100773.84;688304;28;36552;-69
2021/10/04 00:37:32;;;;;;;0.20;0.20;;;;;;;19.22;55.08;100767.53;688293;28;22398;-69
2021/10/04 00:37:54;;;;;;;0.20;0.20;;;;;;;19.22;55.15;100770.28;687370;28;46625;-69
2021/10/04 00:38:15;;;;;;;0.20;0.20;;;;;;;19.21;55.23;100772.16;687697;28;44185;-69
2021/10/04 00:38:36;;;;;;;0.20;0.20;;;;;;;19.20;55.23;100770.50;688712;28;22408;-69
2021/10/04 00:38:58;;;;;;;0.20;0.20;;;;;;;19.20;55.19;100772.41;688712;28;22406;-69
2021/10/04 00:39:19;;;;;;;0.20;0.20;;;;;;;19.20;55.22;100769.66;687450;28;67585;-69
2021/10/04 00:39:40;;;;;;;0.20;0.20;;;;;;;19.20;55.30;100772.41;688645;28;22446;-69
2021/10/04 00:40:01;;;;;;;0.20;0.20;;;;;;;19.18;55.39;100778.09;688332;28;21593;-69
2021/10/04 00:40:25;;;;;;;0.20;0.20;;;;;;;19.17;55.41;100776.47;688019;28;44230;-69
2021/10/04 00:40:46;;;;;;;0.15;0.15;;;;;;;19.17;55.45;100772.88;685637;28;92445;-69
2021/10/04 00:41:07;;;;;;;0.20;0.20;;;;;;;19.18;55.42;100777.28;688497;28;22272;-69
2021/10/04 00:41:29;;;;;;;0.20;0.20;;;;;;;19.16;55.27;100773.94;688841;28;21608;-69
2021/10/04 00:41:51;;;;;;;0.20;0.20;;;;;;;19.17;55.31;100778.34;694047;28;25942;-69
2021/10/04 00:42:12;;;;;;;0.20;0.20;;;;;;;19.13;55.31;100767.03;690386;28;30809;-69
2021/10/04 00:42:33;;;;;;;0.20;0.20;;;;;;;19.17;55.43;100773.72;691242;28;22285;-69
2021/10/04 00:42:54;;;;;;;0.20;0.20;;;;;;;19.14;55.32;100765.13;691696;28;23472;-69
2021/10/04 00:43:17;;;;;;;0.20;0.20;;;;;;;19.17;55.58;100773.72;690478;28;46368;-69
2021/10/04 00:43:38;;;;;;;0.20;0.20;;;;;;;19.16;55.48;100774.78;689802;28;44397;-69
2021/10/04 00:43:59;;;;;;;0.20;0.20;;;;;;;19.16;55.54;100779.44;689099;28;22405;-69
2021/10/04 00:44:21;;;;;;;0.20;0.20;;;;;;;19.16;55.52;100772.03;688750;28;21509;-69
2021/10/04 00:44:42;;;;;;;0.20;0.20;;;;;;;19.17;55.43;100775.59;688071;28;46307;-69
2021/10/04 00:45:05;;;;;;;0.30;0.30;;;;;;;19.15;55.47;100773.09;688312;28;23460;-69
2021/10/04 00:45:27;;;;;;;0.20;0.20;;;;;;;19.14;55.52;100779.66;687109;28;67541;-69
2021/10/04 00:45:50;;;;;;;0.20;0.20;;;;;;;19.14;55.49;100779.66;686529;28;70406;-70
2021/10/04 00:46:11;;;;;;;0.20;0.20;;;;;;;19.12;55.45;100773.56;686998;28;69478;-69
2021/10/04 00:46:33;;;;;;;0.20;0.20;;;;;;;19.13;55.82;100782.63;688811;28;23440;-69
2021/10/04 00:46:54;;;;;;;0.20;0.20;;;;;;;19.12;55.72;100770.81;688049;28;46348;-69
2021/10/04 00:47:18;;;;;;;0.20;0.20;;;;;;;19.12;55.72;100784.50;688173;28;23425;-69
2021/10/04 00:47:40;;;;;;;0.20;0.20;;;;;;;19.12;55.67;100780.94;690730;28;92297;-69
2021/10/04 00:48:01;;;;;;;0.20;0.20;;;;;;;19.09;55.81;100769.41;693361;28;46390;-69
2021/10/04 00:48:23;;;;;;;0.20;0.20;;;;;;;19.13;55.86;100774.41;693349;28;21075;-69
2021/10/04 00:48:47;;;;;;;0.20;0.20;;;;;;;19.13;55.86;100775.25;693256;28;46185;-68
2021/10/04 00:49:08;;;;;;;0.20;0.20;;;;;;;19.12;55.64;100768.09;692224;28;68357;-69
2021/10/04 00:49:34;;;;;;;0.20;0.20;;;;;;;19.14;55.75;100776.94;690189;28;60639;-69
2021/10/04 00:49:56;;;;;;;0.20;0.20;;;;;;;19.15;55.64;100777.75;688684;28;24187;-69
2021/10/04 00:50:19;;;;;;;0.20;0.20;;;;;;;19.13;55.68;100766.22;688295;28;22442;-69
2021/10/04 00:50:40;;;;;;;0.20;0.20;;;;;;;19.12;55.80;100770.81;685893;28;92127;-69
2021/10/04 00:51:02;;;;;;;0.20;0.20;;;;;;;19.14;55.72;100776.06;688561;28;21526;-69
2021/10/04 00:51:23;;;;;;;0.20;0.20;;;;;;;19.12;55.71;100778.22;689350;28;22408;-69
2021/10/04 00:51:45;;;;;;;0.20;0.20;;;;;;;19.09;55.82;100769.41;688908;28;23632;-69
2021/10/04 00:52:06;;;;;;;0.20;0.20;;;;;;;19.11;55.76;100774.66;686998;28;69536;-69
2021/10/04 00:52:27;;;;;;;0.20;0.20;;;;;;;19.11;55.89;100779.28;687660;28;46415;-69
2021/10/04 00:52:49;;;;;;;0.20;0.20;;;;;;;19.06;55.81;100769.03;688796;28;21610;-69
2021/10/04 00:53:10;;;;;;;0.20;0.20;;;;;;;19.09;55.99;100769.41;689125;28;22410;-69
2021/10/04 00:53:32;;;;;;;0.20;0.20;;;;;;;19.09;56.02;100774.88;689013;28;22479;-69
2021/10/04 00:53:54;;;;;;;0.20;0.20;;;;;;;19.08;55.94;100773.19;688248;28;45272;-68
2021/10/04 00:54:15;;;;;;;0.20;0.20;;;;;;;19.09;55.91;100776.78;688556;28;44155;-69
2021/10/04 00:54:37;;;;;;;0.17;0.17;;;;;;;19.09;55.85;100777.63;689689;28;21613;-69
2021/10/04 00:54:59;;;;;;;0.20;0.20;;;;;;;19.08;55.95;100772.38;688392;28;45253;-69
2021/10/04 00:55:20;;;;;;;0.20;0.20;;;;;;;19.09;56.13;100774.88;688464;28;46290;-69
2021/10/04 00:55:42;;;;;;;0.20;0.20;;;;;;;19.08;56.01;100775.13;689052;28;32866;-69
2021/10/04 00:56:03;;;;;;;0.20;0.20;;;;;;;19.08;56.08;100775.94;688581;28;42623;-69
2021/10/04 00:56:26;;;;;;;0.20;0.20;;;;;;;19.08;56.24;100772.38;689315;28;23474;-69
2021/10/04 00:56:47;;;;;;;0.20;0.20;;;;;;;19.05;56.00;100772.84;687188;28;69442;-69
2021/10/04 00:57:08;;;;;;;0.20;0.20;;;;;;;19.08;56.04;100773.19;689962;28;21183;-68
2021/10/04 00:57:29;;;;;;;0.20;0.20;;;;;;;19.04;56.10;100772.03;688394;28;22272;-69
2021/10/04 00:57:51;;;;;;;0.20;0.20;;;;;;;19.07;56.29;100779.78;688397;28;23481;-69
2021/10/04 00:58:12;;;;;;;0.20;0.20;;;;;;;19.07;56.20;100778.91;687764;28;45276;-69
2021/10/04 00:58:34;;;;;;;0.20;0.20;;;;;;;19.06;56.29;100778.09;689095;28;22230;-69
2021/10/04 00:58:56;;;;;;;0.20;0.20;;;;;;;19.06;56.29;100777.25;688766;28;22408;-69
2021/10/04 00:59:18;;;;;;;0.20;0.20;;;;;;;19.07;56.41;100781.66;687483;28;46406;-69
2021/10/04 00:59:39;;;;;;;0.20;0.20;;;;;;;19.07;56.19;100782.50;687561;28;69405;-69
2021/10/04 01:00:00;;;;;;;0.20;0.20;;;;;;;19.05;56.43;100781.88;688353;28;21420;-69
2021/10/04 01:00:25;;;;;;;0.20;0.20;;;;;;;19.03;56.42;100781.28;688975;28;22417;-69
2021/10/04 01:00:46;;;;;;;0.20;0.20;;;;;;;19.05;56.31;100783.78;685604;28;93118;-69
2021/10/04 01:01:07;;;;;;;0.20;0.20;;;;;;;19.06;56.43;100785.47;688545;28;22419;-69
2021/10/04 01:01:28;;;;;;;0.20;0.20;;;;;;;19.04;56.50;100782.97;688945;28;22393;-68
2021/10/04 01:01:50;;;;;;;0.20;0.20;;;;;;;19.03;56.42;100786.75;688210;28;46659;-69
2021/10/04 01:02:11;;;;;;;0.20;0.20;;;;;;;19.01;56.47;100783.44;687908;28;46742;-69
2021/10/04 01:02:34;;;;;;;0.20;0.20;;;;;;;19.02;56.41;100787.81;690146;28;1933;-69
2021/10/04 01:02:56;;;;;;;0.20;0.20;;;;;;;18.99;56.52;100779.25;687157;28;69444;-69
2021/10/04 01:03:18;;;;;;;0.20;0.20;;;;;;;19.00;56.53;100779.00;688418;28;22440;-69
2021/10/04 01:03:39;;;;;;;0.20;0.20;;;;;;;19.01;56.62;100786.16;688248;28;45251;-69
2021/10/04 01:04:00;;;;;;;0.20;0.20;;;;;;;18.99;56.74;100785.53;687867;28;45184;-69
2021/10/04 01:04:26;;;;;;;0.20;0.20;;;;;;;18.98;56.61;100783.88;688907;28;45256;-69
2021/10/04 01:04:47;;;;;;;0.17;0.17;;;;;;;18.99;56.78;100790.19;684990;28;138002;-69
2021/10/04 01:05:10;;;;;;;0.20;0.20;;;;;;;19.00;56.69;100786.41;687999;28;22393;-69
2021/10/04 01:05:31;;;;;;;0.20;0.20;;;;;;;18.96;56.86;100775.06;686752;28;69899;-69
2021/10/04 01:05:53;;;;;;;0.17;0.17;;;;;;;18.99;56.87;100781.97;688513;28;22475;-69
2021/10/04 01:06:14;;;;;;;0.20;0.20;;;;;;;19.00;56.85;100780.94;687967;28;44356;-68
2021/10/04 01:06:35;;;;;;;0.20;0.20;;;;;;;19.00;56.91;100786.41;688889;28;21240;-69
2021/10/04 01:06:57;;;;;;;0.20;0.20;;;;;;;18.97;56.89;100786.88;689199;28;22416;-68
2021/10/04 01:07:19;;;;;;;0.20;0.20;;;;;;;18.96;56.82;100783.25;687553;28;44399;-69
2021/10/04 01:07:41;;;;;;;0.20;0.20;;;;;;;18.98;56.87;100785.78;687275;28;45410;-69
2021/10/04 01:08:02;;;;;;;0.20;0.20;;;;;;;18.97;57.11;100793.16;688640;28;45280;-69
2021/10/04 01:08:24;;;;;;;0.20;0.20;;;;;;;18.97;56.79;100798.63;688705;28;23455;-69
2021/10/04 01:08:46;;;;;;;0.20;0.20;;;;;;;18.99;56.87;100796.50;688813;28;21534;-69
2021/10/04 01:09:07;;;;;;;0.20;0.20;;;;;;;18.99;57.09;100798.41;687587;28;46422;-69
2021/10/04 01:09:28;;;;;;;0.20;0.20;;;;;;;18.95;56.97;100798.03;688655;28;21577;-69
2021/10/04 01:09:49;;;;;;;0.20;0.20;;;;;;;18.95;57.10;100803.50;689680;28;5293;-68
2021/10/04 01:10:11;;;;;;;0.20;0.20;;;;;;;18.94;57.45;100798.28;688120;28;23394;-69
2021/10/04 01:10:33;;;;;;;0.20;0.20;;;;;;;18.95;57.22;100806.25;687158;28;67572;-69
2021/10/04 01:10:54;;;;;;;0.20;0.20;;;;;;;18.94;57.15;100799.09;686808;28;69264;-69
2021/10/04 01:11:16;;;;;;;0.20;0.20;;;;;;;18.93;57.16;100799.31;687429;28;22433;-69
2021/10/04 01:11:37;;;;;;;0.20;0.20;;;;;;;18.95;57.14;100800.78;694099;28;21405;-69
2021/10/04 01:11:58;;;;;;;0.20;0.20;;;;;;;18.93;57.24;100802.88;694754;28;23428;-69
2021/10/04 01:12:20;;;;;;;0.20;0.20;;;;;;;18.95;57.21;100806.25;689486;28;46348;-69
2021/10/04 01:12:44;;;;;;;0.20;0.20;;;;;;;18.94;57.24;100807.31;689813;28;46406;-69
2021/10/04 01:13:05;;;;;;;0.20;0.20;;;;;;;18.93;57.36;100802.88;688710;28;90371;-69
2021/10/04 01:13:26;;;;;;;0.20;0.20;;;;;;;18.91;57.29;100797.66;689750;28;46365;-69
2021/10/04 01:13:48;;;;;;;0.20;0.20;;;;;;;18.93;57.47;100802.06;688335;28;24256;-69
2021/10/04 01:14:09;;;;;;;0.20;0.20;;;;;;;18.94;57.46;100801.00;688492;28;45085;-68
2021/10/04 01:14:31;;;;;;;0.20;0.20;;;;;;;18.94;57.33;100806.47;689738;28;22377;-69
2021/10/04 01:14:52;;;;;;;0.20;0.20;;;;;;;18.93;57.50;100797.41;687800;28;22392;-69
2021/10/04 01:15:14;;;;;;;0.20;0.20;;;;;;;18.94;57.55;100796.34;688392;28;23437;-69
2021/10/04 01:15:36;;;;;;;0.20;0.20;;;;;;;18.89;57.52;100797.06;687564;28;44420;-69
2021/10/04 01:15:57;;;;;;;0.20;0.20;;;;;;;18.94;57.61;100801.84;687068;28;46496;-68
2021/10/04 01:16:21;;;;;;;0.20;0.20;;;;;;;18.94;57.56;100804.56;688276;28;22416;-69
2021/10/04 01:16:43;;;;;;;0.20;0.20;;;;;;;18.92;57.62;100798.50;686473;28;92245;-69
2021/10/04 01:17:06;;;;;;;0.20;0.20;;;;;;;18.93;57.63;100800.16;687612;28;46298;-69
2021/10/04 01:17:27;;;;;;;0.20;0.20;;;;;;;18.96;57.63;100807.91;687064;28;69429;-68
2021/10/04 01:17:50;;;;;;;0.20;0.20;;;;;;;18.91;57.73;100797.66;687789;28;23399;-69
2021/10/04 01:18:11;;;;;;;0.20;0.20;;;;;;;18.96;57.70;100801.59;687027;28;69461;-68
2021/10/04 01:18:34;;;;;;;0.20;0.20;;;;;;;18.95;57.88;100797.19;688468;28;22409;-69
2021/10/04 01:18:55;;;;;;;0.13;0.13;;;;;;;18.97;57.61;100804.09;694084;28;28927;-69
2021/10/04 01:19:17;;;;;;;0.20;0.20;;;;;;;18.97;57.63;100803.28;693332;28;22102;-69
2021/10/04 01:19:39;;;;;;;0.20;0.20;;;;;;;18.96;57.76;100802.44;694429;28;22409;-69
2021/10/04 01:20:07;;;;;;;0.20;0.20;;;;;;;18.98;57.61;100804.94;692303;28;44361;-69
2021/10/04 01:20:29;;;;;;;0.20;0.20;;;;;;;18.98;57.82;100804.94;689434;28;137771;-69
2021/10/04 01:20:51;;;;;;;0.20;0.20;;;;;;;18.98;57.69;100807.66;690708;28;46323;-69
2021/10/04 01:21:12;;;;;;;0.20;0.20;;;;;;;18.98;57.83;100802.19;688553;28;21566;-69
2021/10/04 01:21:33;;;;;;;0.20;0.20;;;;;;;18.97;57.70;100815.06;689193;28;23808;-69
2021/10/04 01:21:55;;;;;;;0.20;0.20;;;;;;;18.94;57.68;100807.31;688843;28;23029;-69
2021/10/04 01:22:16;;;;;;;0.20;0.20;;;;;;;18.97;57.71;100809.59;687513;28;46295;-68
2021/10/04 01:22:37;;;;;;;0.20;0.20;;;;;;;18.99;57.71;100810.16;689255;28;22404;-69
2021/10/04 01:22:59;;;;;;;0.20;0.20;;;;;;;18.99;57.67;100809.34;688975;28;22421;-69
2021/10/04 01:23:20;;;;;;;0.20;0.20;;;;;;;18.98;57.68;100814.00;688722;28;44179;-69
2021/10/04 01:23:41;;;;;;;0.20;0.20;;;;;;;19.00;57.71;100813.78;689708;28;21548;-69
2021/10/04 01:24:03;;;;;;;0.20;0.20;;;;;;;19.01;57.67;100819.00;688210;28;45206;-69
2021/10/04 01:24:24;;;;;;;0.20;0.20;;;;;;;19.01;57.83;100818.16;689088;28;22381;-69
2021/10/04 01:24:46;;;;;;;0.20;0.20;;;;;;;19.00;57.85;100811.84;690398;28;1698;-69
2021/10/04 01:25:09;;;;;;;0.20;0.20;;;;;;;19.01;57.83;100809.94;688556;28;46141;-69
2021/10/04 01:25:32;;;;;;;0.20;0.20;;;;;;;19.01;57.70;100815.41;686914;28;69463;-68
2021/10/04 01:25:54;;;;;;;0.20;0.20;;;;;;;19.02;57.74;100812.44;686426;28;69516;-69
2021/10/04 01:26:16;;;;;;;0.20;0.20;;;;;;;19.02;57.66;100817.94;687728;28;46282;-69
2021/10/04 01:26:37;;;;;;;0.20;0.20;;;;;;;18.99;57.67;100804.69;688498;28;21559;-69
2021/10/04 01:26:58;;;;;;;0.20;0.20;;;;;;;19.02;57.59;100814.38;688401;28;44440;-69
2021/10/04 01:27:19;;;;;;;0.20;0.20;;;;;;;19.01;57.71;100816.28;693895;28;20361;-69
2021/10/04 01:27:40;;;;;;;0.20;0.20;;;;;;;19.01;57.70;100821.75;693061;28;23488;-69
2021/10/04 01:28:04;;;;;;;0.20;0.20;;;;;;;19.02;57.56;100812.44;693689;28;22420;-69
2021/10/04 01:28:26;;;;;;;0.20;0.20;;;;;;;19.03;57.61;100818.78;692247;28;69517;-69
2021/10/04 01:28:47;;;;;;;0.20;0.20;;;;;;;19.03;57.61;100813.31;693055;28;44227;-69
2021/10/04 01:29:08;;;;;;;0.20;0.20;;;;;;;19.02;57.87;100817.94;691350;28;45081;-69
2021/10/04 01:29:30;;;;;;;0.20;0.20;;;;;;;19.04;57.90;100814.97;688869;28;23659;-69
2021/10/04 01:29:54;;;;;;;0.20;0.20;;;;;;;19.02;57.89;100817.94;684723;28;115149;-69
2021/10/04 01:30:18;;;;;;;0.20;0.20;;;;;;;19.03;57.91;100818.78;688618;28;22202;-69
2021/10/04 01:30:40;;;;;;;0.20;0.20;;;;;;;19.02;57.71;100820.66;686763;28;69454;-68
2021/10/04 01:31:01;;;;;;;0.20;0.20;;;;;;;19.01;58.05;100821.75;687218;28;44412;-69
2021/10/04 01:31:22;;;;;;;0.20;0.20;;;;;;;19.00;57.96;100817.31;688440;28;21573;-69
2021/10/04 01:31:43;;;;;;;0.20;0.20;;;;;;;19.02;57.94;100817.09;687464;28;45024;-69
2021/10/04 01:32:05;;;;;;;0.20;0.20;;;;;;;19.02;57.85;100823.41;688204;28;23945;-69
2021/10/04 01:32:27;;;;;;;0.20;0.20;;;;;;;19.02;58.00;100822.56;688291;28;46549;-69
2021/10/04 01:32:49;;;;;;;0.20;0.20;;;;;;;19.00;58.32;100821.97;687118;28;44169;-68
2021/10/04 01:33:10;;;;;;;0.20;0.20;;;;;;;19.01;58.27;100823.63;688820;28;23492;-69
2021/10/04 01:33:32;;;;;;;0.20;0.20;;;;;;;19.00;58.23;100817.31;688041;28;23477;-69
2021/10/04 01:33:55;;;;;;;0.20;0.20;;;;;;;19.00;58.33;100824.72;686823;28;69560;-69
2021/10/04 01:34:16;;;;;;;0.20;0.20;;;;;;;19.00;58.44;100821.97;687439;28;46377;-69
2021/10/04 01:34:37;;;;;;;0.20;0.20;;;;;;;19.01;58.29;100826.38;687888;28;21526;-69
2021/10/04 01:34:58;;;;;;;0.20;0.20;;;;;;;19.00;58.53;100825.53;687397;28;22429;-69
2021/10/04 01:35:22;;;;;;;0.20;0.20;;;;;;;19.00;58.84;100832.94;688769;28;23508;-69
2021/10/04 01:35:43;;;;;;;0.20;0.20;;;;;;;18.99;58.55;100832.06;685639;28;92298;-69
2021/10/04 01:36:04;;;;;;;0.20;0.20;;;;;;;18.99;58.85;100833.97;688665;28;23937;-69
2021/10/04 01:36:29;;;;;;;0.20;0.20;;;;;;;18.99;58.63;100828.50;688327;28;23528;-69
2021/10/04 01:36:50;;;;;;;0.20;0.20;;;;;;;18.99;58.86;100839.47;685600;28;115233;-69
2021/10/04 01:37:12;;;;;;;0.20;0.20;;;;;;;18.98;58.96;100833.16;688628;28;23169;-69
2021/10/04 01:37:33;;;;;;;0.13;0.13;;;;;;;18.99;58.91;100836.72;687901;28;21214;-69
2021/10/04 01:37:55;;;;;;;0.20;0.20;;;;;;;19.00;59.12;100835.66;687067;28;45095;-69
2021/10/04 01:38:16;;;;;;;0.20;0.20;;;;;;;18.99;58.97;100845.75;687467;28;45283;-69
2021/10/04 01:38:37;;;;;;;0.20;0.20;;;;;;;18.98;59.02;100829.56;688507;28;22432;-69
2021/10/04 01:38:59;;;;;;;0.20;0.20;;;;;;;19.00;59.13;100836.50;688399;28;22226;-69
2021/10/04 01:39:21;;;;;;;0.20;0.20;;;;;;;19.01;59.01;100840.91;688519;28;23491;-69
2021/10/04 01:39:42;;;;;;;0.20;0.20;;;;;;;19.01;59.02;100840.91;687833;28;45271;-69
2021/10/04 01:40:04;;;;;;;0.30;0.30;;;;;;;19.02;58.80;100848.03;687803;28;23464;-69
2021/10/04 01:40:26;;;;;;;0.15;0.15;;;;;;;19.04;59.02;100850.53;687056;28;69416;-69
2021/10/04 01:40:47;;;;;;;0.20;0.20;;;;;;;19.02;59.23;100850.78;687318;28;46319;-69
2021/10/04 01:41:08;;;;;;;0.20;0.20;;;;;;;18.99;59.19;100851.22;688426;28;22416;-69
2021/10/04 01:41:29;;;;;;;0.20;0.20;;;;;;;19.00;59.22;100846.59;688413;28;21738;-69
2021/10/04 01:41:51;;;;;;;0.20;0.20;;;;;;;19.01;59.26;100851.84;688894;28;22329;-69
2021/10/04 01:42:12;;;;;;;0.20;0.20;;;;;;;19.01;59.32;100851.84;687488;28;44350;-69
2021/10/04 01:42:34;;;;;;;0.20;0.20;;;;;;;19.01;59.30;100854.59;688386;28;22490;-69